createdAt,value
2019-02-20T00:02:41.269Z,83.34
2019-02-20T00:07:46.455Z,83.78
2019-02-20T00:12:56.520Z,83.94
2019-02-20T00:18:01.598Z,84.11
2019-02-20T00:23:06.673Z,84.69
2019-02-20T00:28:12.204Z,84.90
2019-02-20T00:33:17.304Z,84.86
2019-02-20T00:38:22.733Z,85.27
2019-02-20T00:43:27.914Z,85.05
2019-02-20T00:48:50.881Z,84.61
2019-02-20T00:53:59.052Z,83.74
2019-02-20T00:59:04.058Z,83.00
2019-02-20T01:04:09.160Z,82.78
2019-02-20T01:09:14.262Z,82.15
2019-02-20T01:14:19.286Z,82.67
2019-02-20T01:19:24.803Z,83.25
2019-02-20T01:24:31.184Z,83.04
2019-02-20T01:29:36.640Z,83.22
2019-02-20T01:34:41.728Z,83.53
2019-02-20T01:39:49.422Z,83.45
2019-02-20T01:44:54.390Z,83.41
2019-02-20T01:49:59.428Z,83.75
2019-02-20T01:55:04.889Z,83.88
2019-02-20T02:00:10.343Z,83.82
2019-02-20T02:05:16.025Z,83.73
2019-02-20T02:10:22.298Z,83.42
2019-02-20T02:15:27.704Z,82.52
2019-02-20T02:20:32.854Z,82.14
2019-02-20T02:25:37.936Z,81.69
2019-02-20T02:30:42.940Z,81.51
2019-02-20T02:35:48.610Z,81.56
2019-02-20T02:40:54.735Z,81.94
2019-02-20T02:45:59.899Z,81.91
2019-02-20T02:51:05.461Z,81.50
2019-02-20T02:56:10.532Z,81.24
2019-02-20T03:01:15.614Z,82.02
2019-02-20T03:06:20.640Z,81.97
2019-02-20T03:11:25.663Z,81.67
2019-02-20T03:16:30.782Z,81.47
2019-02-20T03:21:35.844Z,81.22
2019-02-20T03:26:40.926Z,81.80
2019-02-20T03:31:46.367Z,82.02
2019-02-20T03:36:51.368Z,82.23
2019-02-20T03:41:56.951Z,82.31
2019-02-20T03:47:02.218Z,83.37
2019-02-20T03:52:07.446Z,83.46
2019-02-20T03:57:12.583Z,83.74
2019-02-20T04:02:17.996Z,84.05
2019-02-20T04:07:23.108Z,84.02
2019-02-20T04:12:28.579Z,83.80
2019-02-20T04:17:34.081Z,84.10
2019-02-20T04:22:39.277Z,83.49
2019-02-20T04:27:44.389Z,83.47
2019-02-20T04:32:49.796Z,83.63
2019-02-20T04:37:55.975Z,83.75
2019-02-20T04:43:00.985Z,83.79
2019-02-20T04:48:06.005Z,84.01
2019-02-20T04:53:11.131Z,83.27
2019-02-20T04:58:18.901Z,83.08
2019-02-20T05:03:23.907Z,82.91
2019-02-20T05:08:29.072Z,82.79
2019-02-20T05:13:35.096Z,83.17
2019-02-20T05:18:40.180Z,82.92
2019-02-20T05:23:45.370Z,82.66
2019-02-20T05:28:50.871Z,82.97
2019-02-20T05:33:55.894Z,82.97
2019-02-20T05:39:01.739Z,82.88
2019-02-20T05:44:08.473Z,82.69
2019-02-20T05:49:13.557Z,82.82
2019-02-20T05:54:20.055Z,82.39
2019-02-20T05:59:25.253Z,81.74
2019-02-20T06:04:30.286Z,81.58
2019-02-20T06:09:35.362Z,81.51
2019-02-20T06:14:40.766Z,81.19
2019-02-20T06:19:45.903Z,80.89
2019-02-20T06:24:51.435Z,81.10
2019-02-20T06:29:57.415Z,81.00
2019-02-20T06:35:02.530Z,81.18
2019-02-20T06:40:08.753Z,81.61
2019-02-20T06:45:13.857Z,81.83
2019-02-20T06:50:21.061Z,81.97
2019-02-20T06:55:26.236Z,81.69
2019-02-20T07:00:31.376Z,82.27
2019-02-20T07:05:44.893Z,81.99
2019-02-20T07:11:30.138Z,81.86
2019-02-20T07:17:04.148Z,82.12
2019-02-20T07:22:34.382Z,81.72
2019-02-20T07:28:09.902Z,81.95
2019-02-20T07:33:15.587Z,81.50
2019-02-20T07:38:20.775Z,81.64
2019-02-20T07:43:26.324Z,81.19
2019-02-20T07:48:31.431Z,80.98
2019-02-20T07:53:36.987Z,80.77
2019-02-20T07:58:42.597Z,79.97
2019-02-20T08:03:47.861Z,79.84
2019-02-20T08:08:53.405Z,79.15
2019-02-20T08:14:03.722Z,79.63
2019-02-20T08:19:08.850Z,80.07
2019-02-20T08:24:18.983Z,79.69
2019-02-20T08:29:24.098Z,79.36
2019-02-20T08:34:29.289Z,78.95
2019-02-20T08:39:34.531Z,78.73
2019-02-20T08:44:42.556Z,77.45
2019-02-20T08:49:47.645Z,77.05
2019-02-20T08:54:56.347Z,76.11
2019-02-20T09:00:05.703Z,76.14
2019-02-20T09:05:12.971Z,75.02
2019-02-20T09:10:19.202Z,74.56
2019-02-20T09:15:24.501Z,73.95
2019-02-20T09:20:30.191Z,73.09
2019-02-20T09:25:41.641Z,70.86
2019-02-20T09:30:42.650Z,70.70
2019-02-20T09:35:48.055Z,69.73
2019-02-20T09:40:55.044Z,69.17
2019-02-20T09:46:00.590Z,67.82
2019-02-20T09:51:05.818Z,67.97
2019-02-20T09:56:11.107Z,66.91
2019-02-20T10:01:16.237Z,60.68
2019-02-20T10:06:20.523Z,54.82
2019-02-20T10:11:24.814Z,54.32
2019-02-20T10:16:29.637Z,54.77
2019-02-20T10:21:33.714Z,54.50
2019-02-20T10:26:38.107Z,53.01
2019-02-20T10:31:49.142Z,54.96
2019-02-20T10:36:53.981Z,53.06
2019-02-20T10:41:59.303Z,54.51
2019-02-20T10:47:04.423Z,53.71
2019-02-20T10:52:09.905Z,53.06
2019-02-20T10:57:15.168Z,52.29
2019-02-20T11:02:20.565Z,52.49
2019-02-20T11:07:25.857Z,51.90
2019-02-20T11:12:39.061Z,50.72
2019-02-20T11:17:44.917Z,50.23
2019-02-20T11:22:51.194Z,47.48
2019-02-20T11:28:07.430Z,48.22
2019-02-20T11:33:14.857Z,50.00
2019-02-20T11:38:20.337Z,52.02
2019-02-20T11:43:34.629Z,53.88
2019-02-20T11:48:42.656Z,54.50
2019-02-20T11:53:49.269Z,50.95
2019-02-20T11:59:01.369Z,49.87
2019-02-20T12:04:12.246Z,47.77
2019-02-20T12:09:19.042Z,43.39
2019-02-20T12:14:24.834Z,43.39
2019-02-20T12:19:42.781Z,44.23
2019-02-20T12:24:49.526Z,45.88
2019-02-20T12:29:57.257Z,43.47
2019-02-20T12:35:05.154Z,41.16
2019-02-20T12:40:11.927Z,42.78
2019-02-20T12:45:24.411Z,41.36
2019-02-20T12:50:30.450Z,39.22
2019-02-20T12:55:40.681Z,38.32
2019-02-20T13:00:57.353Z,38.02
2019-02-20T13:06:03.451Z,37.78
2019-02-20T13:11:09.751Z,37.49
2019-02-20T13:16:15.272Z,37.85
2019-02-20T13:21:23.774Z,40.63
2019-02-20T13:26:29.464Z,41.95
2019-02-20T13:31:34.724Z,44.26
2019-02-20T13:36:40.189Z,45.79
2019-02-20T13:41:45.347Z,42.33
2019-02-20T13:46:50.759Z,41.45
2019-02-20T13:51:57.137Z,40.16
2019-02-20T13:57:02.534Z,40.29
2019-02-20T14:02:08.056Z,42.17
2019-02-20T14:07:16.309Z,43.75
2019-02-20T14:12:22.452Z,45.51
2019-02-20T14:17:28.341Z,45.08
2019-02-20T14:22:34.327Z,45.85
2019-02-20T14:28:13.254Z,45.95
2019-02-20T14:33:22.603Z,46.72
2019-02-20T14:38:27.865Z,48.04
2019-02-20T14:43:33.245Z,49.66
2019-02-20T14:48:38.624Z,50.46
2019-02-20T14:53:44.407Z,50.93
2019-02-20T14:58:52.889Z,51.62
2019-02-20T15:03:58.725Z,51.87
2019-02-20T15:09:06.034Z,51.98
2019-02-20T15:14:13.371Z,52.84
2019-02-20T15:19:19.753Z,53.87
2019-02-20T15:24:25.149Z,54.80
2019-02-20T15:29:32.521Z,55.47
2019-02-20T15:34:39.651Z,56.10
2019-02-20T15:39:45.391Z,56.69
2019-02-20T15:44:50.974Z,57.44
2019-02-20T15:49:56.411Z,56.45
2019-02-20T15:55:04.146Z,56.89
2019-02-20T16:00:11.498Z,56.78
2019-02-20T16:05:16.769Z,57.00
2019-02-20T16:10:22.444Z,57.41
2019-02-20T16:15:27.757Z,58.19
2019-02-20T16:20:35.171Z,58.72
2019-02-20T16:25:45.874Z,58.98
2019-02-20T16:30:51.381Z,59.23
2019-02-20T16:35:57.571Z,59.54
2019-02-20T16:41:04.770Z,59.84
2019-02-20T16:46:10.015Z,59.85
2019-02-20T16:51:15.337Z,60.39
2019-02-20T16:56:20.873Z,60.71
2019-02-20T17:01:26.464Z,60.93
2019-02-20T17:06:31.884Z,60.85
2019-02-20T17:11:37.257Z,61.41
2019-02-20T17:16:42.403Z,61.36
2019-02-20T17:21:47.559Z,61.61
2019-02-20T17:26:53.553Z,62.03
2019-02-20T17:31:59.070Z,62.30
2019-02-20T17:37:04.218Z,62.65
2019-02-20T17:42:09.350Z,62.85
2019-02-20T17:47:14.939Z,63.05
2019-02-20T17:52:21.473Z,63.07
2019-02-20T17:57:26.719Z,63.30
2019-02-20T18:02:32.193Z,63.48
2019-02-20T18:07:38.121Z,64.12
2019-02-20T18:12:43.393Z,63.99
2019-02-20T18:17:48.516Z,64.15
2019-02-20T18:22:54.411Z,64.16
2019-02-20T18:27:59.915Z,64.36
2019-02-20T18:33:05.432Z,64.43
2019-02-20T18:38:10.635Z,64.68
2019-02-20T18:43:16.055Z,65.00
2019-02-20T18:48:25.843Z,65.31
2019-02-20T18:53:32.084Z,65.33
2019-02-20T18:58:38.476Z,65.86
2019-02-20T19:03:44.217Z,65.70
2019-02-20T19:08:56.335Z,65.48
2019-02-20T19:14:25.974Z,65.75
2019-02-20T19:20:03.224Z,66.07
2019-02-20T19:25:37.329Z,66.11
2019-02-20T19:31:26.863Z,66.24
2019-02-20T19:37:19.164Z,66.38
2019-02-20T19:42:49.439Z,66.61
2019-02-20T19:48:21.965Z,66.80
2019-02-20T19:53:48.760Z,66.99
2019-02-20T19:59:21.714Z,67.36
2019-02-20T20:04:56.702Z,67.80
2019-02-20T20:10:46.472Z,68.29
2019-02-20T20:16:24.607Z,68.60
2019-02-20T20:22:07.854Z,68.71
2019-02-20T20:27:46.949Z,68.79
2019-02-20T20:33:45.589Z,69.18
2019-02-20T20:39:15.932Z,69.31
2019-02-20T20:44:48.120Z,69.35
2019-02-20T20:50:46.435Z,69.51
2019-02-20T20:56:23.511Z,69.59
2019-02-20T21:01:39.447Z,69.75
2019-02-20T21:07:35.337Z,69.95
2019-02-20T21:13:23.451Z,70.33
2019-02-20T21:19:21.468Z,70.35
2019-02-20T21:25:01.401Z,70.58
2019-02-20T21:30:42.815Z,70.97
2019-02-20T21:36:14.594Z,70.84
2019-02-20T21:42:00.326Z,71.20
2019-02-20T21:47:40.800Z,71.21
2019-02-20T21:52:52.362Z,71.57
2019-02-20T21:58:23.075Z,71.83
2019-02-20T22:03:53.725Z,72.01
2019-02-20T22:09:27.154Z,72.04
2019-02-20T22:14:57.704Z,72.01
2019-02-20T22:20:47.198Z,71.97
2019-02-20T22:26:08.975Z,72.26
2019-02-20T22:32:00.565Z,72.55
2019-02-20T22:37:34.516Z,72.73
2019-02-20T22:43:32.758Z,73.17
2019-02-20T22:49:18.016Z,73.60
2019-02-20T22:55:06.981Z,73.94
2019-02-20T23:01:08.034Z,74.22
2019-02-20T23:07:10.740Z,74.51
2019-02-20T23:12:54.628Z,74.61
2019-02-20T23:17:59.805Z,74.73
2019-02-20T23:23:23.965Z,75.35
2019-02-20T23:28:33.711Z,74.76
2019-02-20T23:33:39.195Z,74.19
2019-02-20T23:38:44.514Z,74.16
2019-02-20T23:43:52.149Z,73.98
2019-02-20T23:49:01.510Z,73.58
2019-02-20T23:54:10.150Z,73.60
2019-02-20T23:59:15.347Z,74.12
